Time;durP1;ratioP1;P1;durP2;ratioP2;P2;SDS_P1;SDS_P2;PMS_P1;PMS_P2;Temp;Humidity;BMP_temperature;BMP_pressure;BME280_temperature;BME280_humidity;BME280_pressure;Samples;Min_cycle;Max_cycle;Signal;HPM_P1;HPM_P2
2022/01/15 00:01:50;;;;;;;14.43;7.70;;;7.30;86.80;;;;;;5058651;28;20111;-78
2022/01/15 00:04:16;;;;;;;15.98;7.90;;;7.30;86.90;;;;;;5066007;28;20171;-77
2022/01/15 00:06:42;;;;;;;20.83;9.15;;;7.30;86.80;;;;;;5064545;28;20040;-77
2022/01/15 00:09:07;;;;;;;20.08;8.82;;;7.40;86.70;;;;;;5059367;28;20040;-77
2022/01/15 00:11:34;;;;;;;11.57;6.50;;;7.40;86.70;;;;;;5061873;28;20013;-77
2022/01/15 00:14:13;;;;;;;11.20;6.00;;;7.40;86.60;;;;;;5060819;28;20185;-78
2022/01/15 00:16:55;;;;;;;30.48;9.05;;;7.40;86.50;;;;;;5060536;28;20501;-77
2022/01/15 00:19:31;;;;;;;16.55;7.03;;;7.40;86.40;;;;;;5058769;28;20032;-77
2022/01/15 00:21:57;;;;;;;14.75;7.65;;;7.40;86.60;;;;;;5059849;28;20495;-79
2022/01/15 00:24:24;;;;;;;19.23;9.10;;;7.40;86.70;;;;;;5057698;28;20048;-76
2022/01/15 00:26:50;;;;;;;15.20;7.75;;;7.30;86.50;;;;;;5060628;28;20724;-76
2022/01/15 00:29:15;;;;;;;15.68;7.13;;;7.30;86.50;;;;;;5059703;28;20040;-76
2022/01/15 00:31:41;;;;;;;23.15;7.35;;;7.30;86.60;;;;;;5059643;28;20039;-77
2022/01/15 00:34:07;;;;;;;19.08;7.18;;;7.30;86.60;;;;;;5059413;28;20021;-76
2022/01/15 00:36:32;;;;;;;17.92;8.50;;;7.30;86.60;;;;;;5056625;28;20100;-78
2022/01/15 00:38:58;;;;;;;17.85;6.45;;;7.30;86.50;;;;;;5060346;28;20041;-78
2022/01/15 00:41:23;;;;;;;14.48;6.63;;;7.30;86.60;;;;;;5056140;28;20025;-77
2022/01/15 00:43:49;;;;;;;21.95;8.77;;;7.20;86.50;;;;;;5057951;28;20040;-77
2022/01/15 00:46:14;;;;;;;33.75;9.30;;;7.20;86.70;;;;;;5057722;28;20085;-77
2022/01/15 00:48:40;;;;;;;23.35;8.60;;;7.30;86.80;;;;;;5059162;28;20462;-76
2022/01/15 00:51:06;;;;;;;21.50;8.38;;;7.20;86.70;;;;;;5060431;28;20098;-78
2022/01/15 00:53:31;;;;;;;15.63;7.90;;;7.20;86.70;;;;;;5058641;28;20101;-76
2022/01/15 00:55:57;;;;;;;13.90;7.70;;;7.10;86.70;;;;;;5067026;28;20115;-77
2022/01/15 00:58:23;;;;;;;16.13;8.65;;;7.20;86.90;;;;;;5067474;28;20012;-76
2022/01/15 01:00:48;;;;;;;17.90;7.40;;;7.10;86.80;;;;;;5057610;28;20033;-75
2022/01/15 01:03:14;;;;;;;17.45;7.85;;;7.10;86.70;;;;;;5065192;28;20471;-76
2022/01/15 01:05:39;;;;;;;13.30;7.03;;;7.10;86.90;;;;;;5067126;28;20034;-76
2022/01/15 01:08:05;;;;;;;14.43;7.38;;;7.10;86.80;;;;;;5064335;28;20032;-76
2022/01/15 01:10:48;;;;;;;15.02;8.35;;;7.00;86.90;;;;;;5060651;28;20115;-77
2022/01/15 01:22:20;;;;;;;21.73;9.90;;;7.10;86.80;;;;;;5048370;28;20028;-78
2022/01/15 01:24:25;;;;;;;16.45;8.00;;;7.00;86.60;;;;;;5077133;28;20059;-77
2022/01/15 01:26:57;;;;;;;17.90;8.23;;;6.90;86.60;;;;;;5065365;28;20107;-77
2022/01/15 01:32:35;;;;;;;15.02;7.60;;;6.90;86.70;;;;;;5051785;28;20398;-77
2022/01/15 01:34:56;;;;;;;16.38;8.07;;;6.90;86.80;;;;;;5055573;28;20509;-77
2022/01/15 01:37:35;;;;;;;15.95;6.45;;;6.80;86.80;;;;;;5062268;28;20021;-78
2022/01/15 01:40:17;;;;;;;14.40;7.63;;;6.80;86.90;;;;;;5064211;28;20111;-78
2022/01/15 01:42:56;;;;;;;13.60;6.43;;;6.70;87.00;;;;;;5059665;28;20103;-78
2022/01/15 01:45:22;;;;;;;16.90;8.95;;;6.80;87.10;;;;;;5060935;28;20467;-78
2022/01/15 01:47:48;;;;;;;13.27;6.65;;;6.80;86.80;;;;;;5058006;28;20629;-79
2022/01/15 01:50:13;;;;;;;16.25;8.40;;;6.70;86.90;;;;;;5064912;28;20043;-77
2022/01/15 01:52:40;;;;;;;19.38;7.72;;;6.70;86.80;;;;;;5055021;28;20064;-77
2022/01/15 01:55:06;;;;;;;18.42;8.55;;;6.70;87.10;;;;;;5063976;28;20024;-77
2022/01/15 01:57:33;;;;;;;13.00;6.78;;;6.70;87.10;;;;;;5062547;28;20033;-78
2022/01/15 01:59:58;;;;;;;20.05;7.88;;;6.70;87.20;;;;;;5065135;28;20032;-78
2022/01/15 02:02:24;;;;;;;10.77;4.88;;;6.80;87.10;;;;;;5060645;28;20016;-78
2022/01/15 02:04:49;;;;;;;13.80;6.35;;;6.80;87.10;;;;;;5072062;28;20037;-78
2022/01/15 02:07:15;;;;;;;19.30;8.60;;;6.80;87.00;;;;;;5063511;28;20104;-79
2022/01/15 02:09:41;;;;;;;18.42;8.73;;;6.70;86.80;;;;;;5053283;28;20041;-79
2022/01/15 02:12:07;;;;;;;18.52;8.68;;;6.70;86.80;;;;;;5060793;28;20020;-80
2022/01/15 02:14:32;;;;;;;10.00;5.55;;;6.60;86.90;;;;;;5060831;28;20052;-80
2022/01/15 02:16:58;;;;;;;20.08;8.88;;;6.60;87.10;;;;;;5059794;28;20055;-80
2022/01/15 02:19:32;;;;;;;16.85;8.25;;;6.50;87.00;;;;;;5055097;28;20040;-80
2022/01/15 02:24:41;;;;;;;15.30;6.80;;;6.40;87.20;;;;;;5064701;28;20159;-79
2022/01/15 02:27:07;;;;;;;16.50;7.97;;;6.40;87.30;;;;;;5059121;28;20539;-79
2022/01/15 02:29:32;;;;;;;11.65;5.60;;;6.50;87.50;;;;;;5055916;28;20082;-79
2022/01/15 02:31:58;;;;;;;15.35;7.68;;;6.60;87.50;;;;;;5064020;28;20028;-78
2022/01/15 02:34:23;;;;;;;14.90;7.40;;;6.60;87.20;;;;;;5066164;28;20025;-80
2022/01/15 02:36:49;;;;;;;14.73;8.07;;;6.60;87.00;;;;;;5062661;28;20154;-79
2022/01/15 02:39:14;;;;;;;24.13;10.23;;;6.50;86.90;;;;;;5062908;28;20056;-79
2022/01/15 02:41:41;;;;;;;13.73;6.97;;;6.40;86.90;;;;;;5068789;28;20024;-80
2022/01/15 02:44:14;;;;;;;14.45;6.20;;;6.50;87.30;;;;;;5068364;28;20146;-79
2022/01/15 02:49:15;;;;;;;13.32;5.88;;;6.60;87.30;;;;;;5057945;28;20044;-78
2022/01/15 02:51:41;;;;;;;16.85;7.65;;;6.60;87.20;;;;;;5069299;28;20056;-79
2022/01/15 02:54:07;;;;;;;12.02;6.18;;;6.60;87.10;;;;;;5067950;28;20441;-79
2022/01/15 02:56:36;;;;;;;14.50;7.00;;;6.60;87.00;;;;;;5068814;28;20395;-79
2022/01/15 02:59:05;;;;;;;11.38;6.13;;;6.60;87.00;;;;;;5060246;28;20048;-78
2022/01/15 03:01:31;;;;;;;12.18;5.75;;;6.60;86.80;;;;;;5059942;28;20052;-78
2022/01/15 03:03:57;;;;;;;13.68;6.78;;;6.60;86.80;;;;;;5069729;28;20517;-78
2022/01/15 03:06:22;;;;;;;14.90;6.25;;;6.50;86.90;;;;;;5071542;28;20027;-78
2022/01/15 03:08:49;;;;;;;13.68;6.40;;;6.50;86.90;;;;;;5066254;28;20060;-77
2022/01/15 03:11:15;;;;;;;13.18;6.88;;;6.50;86.90;;;;;;5069661;28;20020;-77
2022/01/15 03:13:42;;;;;;;13.05;6.43;;;6.40;86.80;;;;;;5059440;28;20040;-77
2022/01/15 03:16:09;;;;;;;11.15;5.90;;;6.50;87.00;;;;;;5065626;28;20024;-77
2022/01/15 03:18:35;;;;;;;14.35;7.18;;;6.50;86.90;;;;;;5060221;28;20037;-77
2022/01/15 03:21:00;;;;;;;13.50;6.60;;;6.50;86.80;;;;;;5071795;28;20024;-78
2022/01/15 03:23:26;;;;;;;13.05;6.35;;;6.40;86.70;;;;;;5076167;28;20537;-76
2022/01/15 03:25:51;;;;;;;13.07;6.10;;;6.30;86.80;;;;;;5069377;28;20364;-77
2022/01/15 03:28:17;;;;;;;10.23;5.47;;;6.30;86.90;;;;;;5069794;28;20016;-76
2022/01/15 03:30:43;;;;;;;7.75;3.85;;;6.30;87.00;;;;;;5065093;28;20111;-77
2022/01/15 03:33:09;;;;;;;11.13;5.60;;;6.30;87.10;;;;;;5069092;28;20027;-76
2022/01/15 03:35:35;;;;;;;10.27;5.63;;;6.10;86.90;;;;;;5070544;28;20487;-77
2022/01/15 03:38:03;;;;;;;15.73;7.65;;;6.10;87.10;;;;;;5065959;28;20604;-77
2022/01/15 03:40:28;;;;;;;11.13;5.82;;;6.10;87.20;;;;;;5052543;28;20372;-77
2022/01/15 03:42:54;;;;;;;14.82;6.25;;;6.10;87.50;;;;;;5068091;28;20017;-78
2022/01/15 03:45:19;;;;;;;10.88;5.30;;;6.20;87.60;;;;;;5063003;28;20104;-77
2022/01/15 03:47:45;;;;;;;10.35;4.78;;;6.20;87.40;;;;;;5066089;28;20029;-78
2022/01/15 03:50:13;;;;;;;8.45;4.47;;;6.20;87.40;;;;;;5057149;28;20051;-78
2022/01/15 03:52:38;;;;;;;13.38;6.53;;;6.20;87.50;;;;;;5069062;28;20044;-78
2022/01/15 03:55:06;;;;;;;11.98;5.35;;;6.30;87.50;;;;;;5066889;28;20471;-78
2022/01/15 03:57:32;;;;;;;12.43;5.88;;;6.20;87.30;;;;;;5067864;28;20024;-79
2022/01/15 03:59:59;;;;;;;12.68;6.80;;;6.20;87.30;;;;;;5063397;28;20505;-78
2022/01/15 04:02:24;;;;;;;17.98;7.88;;;6.20;87.30;;;;;;5068803;28;20074;-77
2022/01/15 04:04:50;;;;;;;13.63;6.93;;;6.20;87.20;;;;;;5059051;28;20029;-76
2022/01/15 04:07:16;;;;;;;13.50;6.55;;;6.20;87.20;;;;;;5067583;28;20028;-77
2022/01/15 04:09:42;;;;;;;13.60;6.18;;;6.20;87.40;;;;;;5065980;28;20035;-79
2022/01/15 04:12:07;;;;;;;16.30;7.43;;;6.20;87.40;;;;;;5060992;28;20059;-78
2022/01/15 04:14:33;;;;;;;13.52;6.13;;;6.20;87.40;;;;;;5060345;28;20507;-78
2022/01/15 04:16:59;;;;;;;11.38;5.85;;;6.20;87.50;;;;;;5068627;28;20027;-79
2022/01/15 04:19:25;;;;;;;9.93;5.28;;;6.20;87.60;;;;;;5066261;28;20021;-79
2022/01/15 04:21:51;;;;;;;10.98;5.55;;;6.30;87.40;;;;;;5068485;28;20032;-78
2022/01/15 04:24:17;;;;;;;11.02;5.72;;;6.30;87.40;;;;;;5059983;28;20540;-78
2022/01/15 04:26:43;;;;;;;13.18;6.20;;;6.30;87.20;;;;;;5057114;28;20105;-78
2022/01/15 04:29:08;;;;;;;12.10;6.13;;;6.30;87.10;;;;;;5078612;28;20062;-78
2022/01/15 04:31:56;;;;;;;10.57;5.40;;;6.10;87.00;;;;;;5066609;28;20013;-78
2022/01/15 04:34:25;;;;;;;10.63;5.28;;;6.20;87.40;;;;;;5069835;28;20085;-78
2022/01/15 04:36:52;;;;;;;11.27;4.85;;;6.20;87.60;;;;;;5064820;28;20078;-78
2022/01/15 04:39:19;;;;;;;10.32;5.75;;;6.20;87.50;;;;;;5066698;28;20025;-78
2022/01/15 04:41:45;;;;;;;12.20;6.05;;;6.20;87.40;;;;;;5061664;28;20029;-78
2022/01/15 04:44:11;;;;;;;12.10;6.20;;;6.10;87.30;;;;;;5059844;28;20025;-79
2022/01/15 04:46:38;;;;;;;9.15;5.68;;;6.10;87.40;;;;;;5064829;28;20498;-79
2022/01/15 04:49:05;;;;;;;12.27;6.25;;;6.10;87.30;;;;;;5069479;28;20040;-78
2022/01/15 04:51:31;;;;;;;9.82;5.43;;;6.10;87.30;;;;;;5058695;28;20063;-78
2022/01/15 04:53:57;;;;;;;21.40;7.75;;;6.00;87.30;;;;;;5069298;28;20027;-78
2022/01/15 04:56:23;;;;;;;11.20;7.18;;;6.00;87.20;;;;;;5054344;28;20021;-78
2022/01/15 04:58:49;;;;;;;10.10;5.60;;;5.90;87.40;;;;;;5065530;28;20461;-78
2022/01/15 05:01:14;;;;;;;10.18;6.45;;;5.90;87.70;;;;;;5062092;28;20964;-79
2022/01/15 05:03:40;;;;;;;11.38;6.32;;;5.90;87.80;;;;;;5065214;28;20045;-79
2022/01/15 05:06:05;;;;;;;10.05;4.60;;;5.90;87.80;;;;;;5065036;28;20024;-79
2022/01/15 05:08:32;;;;;;;12.93;6.53;;;6.00;87.80;;;;;;5061336;28;20116;-79
2022/01/15 05:11:00;;;;;;;11.30;6.32;;;5.90;87.80;;;;;;5065293;28;20090;-79
2022/01/15 05:13:29;;;;;;;19.23;7.57;;;6.00;87.80;;;;;;5060808;28;20030;-78
2022/01/15 05:15:55;;;;;;;12.70;6.78;;;6.10;87.90;;;;;;5058260;28;20059;-79
2022/01/15 05:18:20;;;;;;;15.52;6.18;;;6.10;87.70;;;;;;5063832;28;20032;-79
2022/01/15 05:20:46;;;;;;;16.67;7.50;;;6.10;87.50;;;;;;5066097;28;20028;-78
2022/01/15 05:23:12;;;;;;;11.98;6.65;;;6.10;87.50;;;;;;5068411;28;20032;-79
2022/01/15 05:25:39;;;;;;;20.33;6.82;;;6.10;87.50;;;;;;5077673;28;20017;-78
2022/01/15 05:28:05;;;;;;;16.80;5.88;;;6.20;87.50;;;;;;5061923;28;20033;-79
2022/01/15 05:30:32;;;;;;;11.63;6.32;;;6.10;87.40;;;;;;5069154;28;20166;-79
2022/01/15 05:32:58;;;;;;;14.45;5.95;;;6.20;87.40;;;;;;5063242;28;20102;-78
2022/01/15 05:35:26;;;;;;;22.42;6.93;;;6.20;87.50;;;;;;5051168;28;20033;-78
2022/01/15 05:37:56;;;;;;;15.23;7.28;;;6.20;87.30;;;;;;5063369;28;20017;-78
2022/01/15 05:40:21;;;;;;;11.10;4.85;;;6.20;87.40;;;;;;5065308;28;20028;-78
2022/01/15 05:42:47;;;;;;;10.60;5.00;;;6.20;87.40;;;;;;5064019;28;20372;-79
2022/01/15 05:45:13;;;;;;;15.77;7.32;;;6.20;87.40;;;;;;5065174;28;20036;-78
2022/01/15 05:47:39;;;;;;;9.98;5.30;;;6.20;87.30;;;;;;5062828;28;20036;-79
2022/01/15 05:50:05;;;;;;;13.80;5.90;;;6.10;87.50;;;;;;5065885;28;20413;-79
2022/01/15 05:52:31;;;;;;;10.07;3.83;;;6.20;87.50;;;;;;5056201;28;20028;-78
2022/01/15 05:54:56;;;;;;;14.05;5.47;;;6.20;87.50;;;;;;5068603;28;20025;-79
2022/01/15 05:57:22;;;;;;;13.07;5.15;;;6.20;87.50;;;;;;5054971;28;20480;-79
2022/01/15 05:59:51;;;;;;;37.97;7.00;;;6.20;87.50;;;;;;5066957;28;20537;-79
2022/01/15 06:02:17;;;;;;;24.08;5.43;;;6.20;87.50;;;;;;5069706;28;20020;-79
2022/01/15 06:04:43;;;;;;;15.15;6.80;;;6.20;87.60;;;;;;5061573;28;20086;-78
2022/01/15 06:07:08;;;;;;;22.67;7.70;;;6.20;87.50;;;;;;5063429;28;20021;-79
2022/01/15 06:09:33;;;;;;;20.45;6.60;;;6.10;87.40;;;;;;5066116;28;20033;-79
2022/01/15 06:12:01;;;;;;;25.98;6.15;;;6.00;87.50;;;;;;5058773;28;20030;-78
2022/01/15 06:14:26;;;;;;;15.25;5.40;;;6.00;87.70;;;;;;5070148;28;20016;-78
2022/01/15 06:16:52;;;;;;;15.43;6.75;;;6.10;87.90;;;;;;5067916;28;20566;-77
2022/01/15 06:19:18;;;;;;;21.98;7.10;;;6.00;87.80;;;;;;5065308;28;20048;-77
2022/01/15 06:21:43;;;;;;;22.42;6.13;;;6.00;87.80;;;;;;5061429;28;20096;-77
2022/01/15 06:24:09;;;;;;;15.45;4.95;;;6.00;87.90;;;;;;5068891;28;20108;-78
2022/01/15 06:26:34;;;;;;;8.90;5.60;;;6.10;87.90;;;;;;5066079;28;20710;-78
2022/01/15 06:29:00;;;;;;;29.15;7.65;;;6.00;87.70;;;;;;5069163;28;20040;-78
2022/01/15 06:31:28;;;;;;;16.05;6.38;;;6.00;87.80;;;;;;5070815;28;20027;-78
2022/01/15 06:33:53;;;;;;;13.68;5.72;;;5.90;88.00;;;;;;5057218;28;20671;-78
2022/01/15 06:36:19;;;;;;;27.00;6.80;;;6.00;88.20;;;;;;5071678;28;20024;-78
2022/01/15 06:38:44;;;;;;;20.70;5.65;;;6.00;88.20;;;;;;5067593;28;20032;-78
2022/01/15 06:41:10;;;;;;;23.35;6.60;;;6.10;88.20;;;;;;5072011;28;20044;-79
2022/01/15 06:43:35;;;;;;;12.57;5.97;;;6.10;88.10;;;;;;5064025;28;20032;-79
2022/01/15 06:46:01;;;;;;;29.63;6.28;;;6.20;88.10;;;;;;5068942;28;20012;-79
2022/01/15 06:48:28;;;;;;;13.07;4.10;;;6.30;87.90;;;;;;5065308;28;20768;-79
2022/01/15 06:50:54;;;;;;;21.40;7.82;;;6.30;87.80;;;;;;5067382;28;20398;-79
2022/01/15 06:53:20;;;;;;;21.38;6.10;;;6.30;87.50;;;;;;5059524;28;20237;-78
2022/01/15 06:55:49;;;;;;;21.35;6.95;;;6.20;87.50;;;;;;5058453;28;20024;-77
2022/01/15 06:58:15;;;;;;;24.20;6.45;;;6.20;87.70;;;;;;5064011;28;20495;-79
2022/01/15 07:00:41;;;;;;;13.90;6.47;;;6.10;87.70;;;;;;5066133;28;20025;-78
2022/01/15 07:03:06;;;;;;;17.48;8.63;;;6.10;87.90;;;;;;5064070;28;20159;-77
2022/01/15 07:05:32;;;;;;;18.08;6.00;;;6.10;87.90;;;;;;5069103;28;20479;-77
2022/01/15 07:07:57;;;;;;;24.00;7.00;;;6.10;88.00;;;;;;5068927;28;20033;-78
2022/01/15 07:10:23;;;;;;;16.05;6.22;;;6.00;88.00;;;;;;5064735;28;20033;-79
2022/01/15 07:12:49;;;;;;;23.60;6.78;;;6.00;88.10;;;;;;5067861;28;20027;-78
2022/01/15 07:15:14;;;;;;;15.70;7.00;;;6.10;88.20;;;;;;5067306;28;20081;-78
2022/01/15 07:17:44;;;;;;;15.88;6.55;;;6.00;88.10;;;;;;5066941;28;20031;-78
2022/01/15 07:20:12;;;;;;;32.42;7.13;;;6.00;88.30;;;;;;5062285;28;20074;-77
2022/01/15 07:22:38;;;;;;;17.42;5.70;;;6.00;88.20;;;;;;5075773;28;20033;-78
2022/01/15 07:25:05;;;;;;;14.25;7.90;;;6.00;88.80;;;;;;5075126;28;20070;-78
2022/01/15 07:27:30;;;;;;;16.05;7.10;;;5.90;88.00;;;;;;5064425;28;20043;-77
2022/01/15 07:29:56;;;;;;;39.65;8.20;;;5.90;88.20;;;;;;5065195;28;20036;-77
2022/01/15 07:32:22;;;;;;;38.88;7.85;;;5.80;88.30;;;;;;5065245;28;20021;-78
2022/01/15 07:34:47;;;;;;;28.40;7.47;;;5.80;88.60;;;;;;5060031;28;20024;-77
2022/01/15 07:37:14;;;;;;;24.05;8.30;;;5.60;88.80;;;;;;5056417;28;20048;-79
2022/01/15 07:39:42;;;;;;;16.05;8.13;;;5.60;89.00;;;;;;5067336;28;20123;-77
2022/01/15 07:42:08;;;;;;;58.83;9.63;;;5.60;89.20;;;;;;5076371;28;20116;-78
2022/01/15 07:44:33;;;;;;;23.00;7.45;;;5.60;89.20;;;;;;5076499;28;20024;-76
2022/01/15 07:46:59;;;;;;;34.13;8.55;;;5.60;89.40;;;;;;5071008;28;20355;-77
2022/01/15 07:49:24;;;;;;;18.75;8.05;;;5.70;89.50;;;;;;5076175;28;20036;-77
2022/01/15 07:51:50;;;;;;;18.05;7.10;;;5.70;89.40;;;;;;5079695;28;20086;-77
2022/01/15 07:54:16;;;;;;;41.33;10.63;;;5.70;89.40;;;;;;5077552;28;20705;-76
2022/01/15 07:56:41;;;;;;;33.33;9.07;;;5.70;89.40;;;;;;5072109;28;20028;-76
2022/01/15 07:59:07;;;;;;;17.27;8.07;;;5.70;89.50;;;;;;5073156;28;20115;-76
2022/01/15 08:01:32;;;;;;;15.98;7.78;;;5.80;89.40;;;;;;5065032;28;20026;-76
2022/01/15 08:03:58;;;;;;;30.33;8.80;;;5.80;89.50;;;;;;5061088;28;20111;-76
2022/01/15 08:06:23;;;;;;;28.25;8.98;;;5.90;89.50;;;;;;5061767;28;20035;-76
2022/01/15 08:08:49;;;;;;;22.40;8.30;;;5.80;89.30;;;;;;5072423;28;20039;-78
2022/01/15 08:11:14;;;;;;;30.88;10.73;;;5.90;89.40;;;;;;5066807;28;20016;-76
2022/01/15 08:13:40;;;;;;;21.95;9.10;;;5.90;89.20;;;;;;5069128;28;20063;-76
2022/01/15 08:16:06;;;;;;;13.88;7.90;;;5.90;89.30;;;;;;5068563;28;20020;-76
2022/01/15 08:18:32;;;;;;;23.30;10.07;;;5.80;89.70;;;;;;5064707;28;20107;-77
2022/01/15 08:20:58;;;;;;;56.30;10.88;;;5.80;89.10;;;;;;5060097;28;20436;-76
2022/01/15 08:23:24;;;;;;;29.70;10.65;;;5.80;89.30;;;;;;5057994;28;20032;-76
2022/01/15 08:25:49;;;;;;;30.88;11.43;;;5.80;89.40;;;;;;5062737;28;20028;-76
2022/01/15 08:28:16;;;;;;;28.17;11.93;;;5.80;89.40;;;;;;5070893;28;20504;-76
2022/01/15 08:30:42;;;;;;;25.27;10.10;;;5.70;89.50;;;;;;5074646;28;20480;-76
2022/01/15 08:33:07;;;;;;;29.05;10.40;;;5.80;89.60;;;;;;5074929;28;20062;-76
2022/01/15 08:35:33;;;;;;;27.08;9.48;;;5.70;89.60;;;;;;5076477;28;20028;-75
2022/01/15 08:38:01;;;;;;;35.33;11.32;;;5.80;89.70;;;;;;5066739;28;20023;-75
2022/01/15 08:40:28;;;;;;;22.95;9.25;;;5.80;89.60;;;;;;5074510;28;20576;-76
2022/01/15 08:42:53;;;;;;;83.90;14.52;;;5.80;89.50;;;;;;5077576;28;20378;-74
2022/01/15 08:45:19;;;;;;;39.17;14.50;;;5.80;89.40;;;;;;5073847;28;20029;-76
2022/01/15 08:47:45;;;;;;;52.22;11.07;;;5.70;89.40;;;;;;5072499;28;20025;-76
2022/01/15 08:50:13;;;;;;;51.85;12.75;;;5.70;89.70;;;;;;5074718;28;20169;-75
2022/01/15 08:52:39;;;;;;;24.10;10.93;;;5.70;89.70;;;;;;5066475;28;20558;-75
2022/01/15 08:55:06;;;;;;;30.35;12.90;;;5.70;89.70;;;;;;5066542;28;20021;-75
2022/01/15 08:57:33;;;;;;;70.93;13.18;;;5.70;89.70;;;;;;5063519;28;20694;-77
2022/01/15 08:59:59;;;;;;;50.63;12.30;;;5.70;89.70;;;;;;5054833;28;20021;-77
2022/01/15 09:02:25;;;;;;;41.50;12.75;;;5.70;89.70;;;;;;5060390;28;20104;-75
2022/01/15 09:04:50;;;;;;;38.20;14.00;;;5.70;90.10;;;;;;5060276;28;20124;-76
2022/01/15 09:07:16;;;;;;;24.05;11.68;;;5.60;89.80;;;;;;5061207;28;20020;-76
2022/01/15 09:09:43;;;;;;;28.23;10.60;;;5.50;89.90;;;;;;5057783;28;20383;-75
2022/01/15 09:12:11;;;;;;;28.25;11.63;;;5.60;90.10;;;;;;5064173;28;20082;-75
2022/01/15 09:14:37;;;;;;;24.67;11.05;;;5.60;90.10;;;;;;5074451;28;20028;-77
2022/01/15 09:17:03;;;;;;;32.25;12.15;;;5.70;90.10;;;;;;5068541;28;20060;-77
2022/01/15 09:19:28;;;;;;;52.72;11.23;;;5.70;90.20;;;;;;5067367;28;20064;-76
2022/01/15 09:21:54;;;;;;;21.30;11.75;;;5.70;90.00;;;;;;5074165;28;20444;-75
2022/01/15 09:24:19;;;;;;;36.97;11.70;;;5.60;89.80;;;;;;5073910;28;20029;-75
2022/01/15 09:32:05;;;;;;;21.67;8.68;;;5.40;90.10;;;;;;5076032;28;20043;-75
2022/01/15 09:34:34;;;;;;;19.73;11.63;;;5.40;90.20;;;;;;5067588;28;20036;-77
2022/01/15 09:37:00;;;;;;;16.67;9.77;;;5.30;90.20;;;;;;5072769;28;20020;-76
2022/01/15 09:39:26;;;;;;;29.02;10.07;;;5.30;90.30;;;;;;5060100;28;20039;-73
2022/01/15 09:41:54;;;;;;;24.88;10.32;;;5.20;90.40;;;;;;5071349;28;20036;-73
2022/01/15 09:44:21;;;;;;;48.92;12.07;;;5.30;90.40;;;;;;5069207;28;20360;-73
2022/01/15 09:46:47;;;;;;;43.28;13.57;;;5.30;90.40;;;;;;5067788;28;20032;-73
2022/01/15 09:49:18;;;;;;;32.60;12.90;;;5.30;90.40;;;;;;5061894;28;20031;-74
2022/01/15 09:51:45;;;;;;;38.13;13.05;;;5.20;90.40;;;;;;5063108;28;20028;-73
2022/01/15 09:54:13;;;;;;;34.67;12.13;;;5.20;90.50;;;;;;5061696;28;20037;-74
2022/01/15 09:56:38;;;;;;;38.80;9.60;;;5.20;90.60;;;;;;5060193;28;20731;-74
2022/01/15 09:59:04;;;;;;;32.55;11.07;;;5.30;90.60;;;;;;5064381;28;20104;-74
2022/01/15 10:01:31;;;;;;;132.10;17.33;;;5.30;90.50;;;;;;5061761;28;20169;-74
2022/01/15 10:03:57;;;;;;;56.53;13.23;;;5.30;90.50;;;;;;5063012;28;20020;-74
2022/01/15 10:06:23;;;;;;;75.38;14.48;;;5.30;90.50;;;;;;5064638;28;20024;-74
2022/01/15 10:08:59;;;;;;;24.23;10.45;;;5.30;90.50;;;;;;5066635;28;20033;-82
2022/01/15 10:11:41;;;;;;;27.77;10.35;;;5.30;90.50;;;;;;5066845;28;20032;-82
2022/01/15 10:14:32;;;;;;;22.33;11.13;;;5.30;90.50;;;;;;5064304;28;20029;-81
2022/01/15 10:17:00;;;;;;;37.10;12.77;;;5.30;90.60;;;;;;5062460;28;20074;-74
2022/01/15 10:19:26;;;;;;;28.27;9.85;;;5.30;90.60;;;;;;5075162;28;20131;-75
2022/01/15 10:22:13;;;;;;;27.77;9.57;;;5.30;90.70;;;;;;5075809;28;20016;-74
2022/01/15 10:24:41;;;;;;;23.15;8.93;;;5.30;90.70;;;;;;5077029;28;20036;-75
2022/01/15 10:27:18;;;;;;;49.67;11.38;;;5.30;90.70;;;;;;5071752;28;20023;-75
2022/01/15 10:29:56;;;;;;;51.20;12.82;;;5.30;90.70;;;;;;5064541;28;20040;-76
2022/01/15 10:32:22;;;;;;;87.20;13.68;;;5.30;90.70;;;;;;5071513;28;20021;-75
2022/01/15 10:34:48;;;;;;;16.58;8.98;;;5.30;90.70;;;;;;5067740;28;20028;-77
2022/01/15 10:37:16;;;;;;;18.45;11.35;;;5.30;90.70;;;;;;5071631;28;20021;-77
2022/01/15 10:39:59;;;;;;;91.60;13.27;;;5.40;90.70;;;;;;5066968;28;20470;-75
2022/01/15 10:42:25;;;;;;;32.63;12.05;;;5.30;90.70;;;;;;5067231;28;20363;-76
2022/01/15 10:44:56;;;;;;;44.15;13.07;;;5.30;90.60;;;;;;5061561;28;20028;-75
2022/01/15 10:47:25;;;;;;;32.72;11.88;;;5.30;90.70;;;;;;5069908;28;20025;-74
2022/01/15 10:49:51;;;;;;;35.47;10.93;;;5.20;90.70;;;;;;5073220;28;20045;-74
2022/01/15 10:52:24;;;;;;;19.20;8.43;;;5.30;90.80;;;;;;5061553;28;20021;-74
2022/01/15 10:55:04;;;;;;;12.55;6.72;;;5.30;90.80;;;;;;5066659;28;20028;-74
2022/01/15 10:57:41;;;;;;;16.85;9.48;;;5.30;90.70;;;;;;5075976;28;20091;-74
2022/01/15 11:00:36;;;;;;;15.73;8.25;;;5.30;90.70;;;;;;5070596;28;20017;-74
2022/01/15 11:03:05;;;;;;;18.05;7.95;;;5.40;90.80;;;;;;5063156;28;20037;-75
2022/01/15 11:05:37;;;;;;;26.75;12.90;;;5.40;90.70;;;;;;5077070;28;20426;-75
2022/01/15 11:08:16;;;;;;;22.92;12.23;;;5.40;90.70;;;;;;5061549;28;20471;-74
2022/01/15 11:10:50;;;;;;;18.65;10.68;;;5.30;90.70;;;;;;5059280;28;20083;-76
2022/01/15 11:13:23;;;;;;;24.13;12.00;;;5.30;90.80;;;;;;5071446;28;20020;-76
2022/01/15 11:15:58;;;;;;;90.03;16.13;;;5.30;90.80;;;;;;5069235;28;20029;-77
2022/01/15 11:18:29;;;;;;;37.53;12.23;;;5.30;90.80;;;;;;5066880;28;20020;-77
2022/01/15 11:20:57;;;;;;;62.25;15.13;;;5.30;90.80;;;;;;5065463;28;20409;-76
2022/01/15 11:23:25;;;;;;;48.97;13.02;;;5.30;90.80;;;;;;5067171;28;20016;-76
2022/01/15 11:25:52;;;;;;;21.55;11.23;;;5.30;90.80;;;;;;5071632;28;20651;-76
2022/01/15 11:28:19;;;;;;;33.28;14.68;;;5.40;90.80;;;;;;5066636;28;20682;-75
2022/01/15 11:30:46;;;;;;;27.48;12.55;;;5.30;90.70;;;;;;5068140;28;20032;-76
2022/01/15 11:33:12;;;;;;;38.33;12.55;;;5.30;90.80;;;;;;5071156;28;20073;-76
2022/01/15 11:35:45;;;;;;;26.80;10.70;;;5.30;90.80;;;;;;5069865;28;20402;-76
2022/01/15 11:38:31;;;;;;;37.95;12.50;;;5.30;90.80;;;;;;5069610;28;20498;-77
2022/01/15 11:40:57;;;;;;;20.92;10.15;;;5.30;90.80;;;;;;5064639;28;20387;-76
2022/01/15 11:43:25;;;;;;;33.85;12.95;;;5.30;90.80;;;;;;5068729;28;20021;-76
2022/01/15 11:45:56;;;;;;;52.88;11.93;;;5.30;90.80;;;;;;5072275;28;20024;-76
2022/01/15 11:48:30;;;;;;;87.47;13.68;;;5.30;90.90;;;;;;5074229;28;20186;-77
2022/01/15 11:51:14;;;;;;;43.08;12.02;;;5.40;90.90;;;;;;5062035;28;20036;-76
2022/01/15 11:53:51;;;;;;;31.50;11.05;;;5.40;90.80;;;;;;5060552;28;20062;-75
2022/01/15 11:56:22;;;;;;;28.02;13.00;;;5.40;90.70;;;;;;5069577;28;20081;-76
2022/01/15 11:58:49;;;;;;;24.52;13.13;;;5.30;90.70;;;;;;5067590;28;20112;-76
2022/01/15 12:01:42;;;;;;;31.20;11.45;;;5.20;90.70;;;;;;5067982;28;20095;-76
2022/01/15 12:04:26;;;;;;;26.67;11.57;;;5.20;90.90;;;;;;5067409;28;20032;-76
2022/01/15 12:07:09;;;;;;;42.15;11.35;;;5.30;90.90;;;;;;5057618;28;20029;-78
2022/01/15 12:09:52;;;;;;;25.75;9.90;;;5.30;90.80;;;;;;5078538;28;20185;-76
2022/01/15 12:12:30;;;;;;;38.47;11.65;;;5.30;90.70;;;;;;5069198;28;20479;-77
2022/01/15 12:15:01;;;;;;;31.50;10.68;;;5.20;90.70;;;;;;5074808;28;20546;-78
2022/01/15 12:17:36;;;;;;;22.40;10.93;;;5.20;90.70;;;;;;5068649;28;20754;-78
2022/01/15 12:20:28;;;;;;;30.08;11.15;;;5.20;90.70;;;;;;5078792;28;20035;-78
2022/01/15 12:23:01;;;;;;;19.47;9.93;;;5.20;90.70;;;;;;5083601;28;20036;-80
2022/01/15 12:25:30;;;;;;;36.92;11.45;;;5.20;90.70;;;;;;5074901;28;20275;-77
2022/01/15 12:28:09;;;;;;;48.45;12.10;;;5.20;90.70;;;;;;5067457;28;20455;-77
2022/01/15 12:30:40;;;;;;;28.58;9.98;;;5.20;90.70;;;;;;5072469;28;20447;-77
2022/01/15 12:33:09;;;;;;;27.00;11.52;;;5.10;90.70;;;;;;5070096;28;20035;-78
2022/01/15 12:35:37;;;;;;;76.65;13.48;;;5.10;90.60;;;;;;5069761;28;20035;-77
2022/01/15 12:38:10;;;;;;;117.10;13.18;;;4.90;90.60;;;;;;5067345;28;20078;-78
2022/01/15 12:40:52;;;;;;;18.58;10.75;;;5.00;90.80;;;;;;5068791;28;20356;-77
2022/01/15 12:43:17;;;;;;;18.95;10.93;;;5.00;90.70;;;;;;5064698;28;20035;-79
2022/01/15 12:45:46;;;;;;;119.70;14.45;;;4.90;90.70;;;;;;5064177;28;20111;-76
2022/01/15 12:48:19;;;;;;;24.75;12.30;;;4.90;90.80;;;;;;5065110;28;20063;-78
2022/01/15 12:50:50;;;;;;;29.27;11.77;;;4.90;90.70;;;;;;5062816;28;20116;-78
2022/01/15 12:53:18;;;;;;;40.58;12.85;;;4.90;90.80;;;;;;5064879;28;20071;-79
2022/01/15 12:55:44;;;;;;;18.27;9.10;;;4.90;90.70;;;;;;5074566;28;20134;-79
2022/01/15 12:58:13;;;;;;;21.92;9.70;;;4.90;90.70;;;;;;5071082;28;20048;-78
2022/01/15 13:00:39;;;;;;;57.88;13.05;;;4.90;90.80;;;;;;5071553;28;20054;-78
2022/01/15 13:03:09;;;;;;;43.40;12.38;;;4.90;90.70;;;;;;5069404;28;20032;-78
2022/01/15 13:05:47;;;;;;;55.20;13.82;;;5.00;90.70;;;;;;5066273;28;20481;-77
2022/01/15 13:08:15;;;;;;;109.05;15.00;;;5.00;90.60;;;;;;5064838;28;20431;-76
2022/01/15 13:10:49;;;;;;;79.75;11.63;;;5.00;90.50;;;;;;5061477;28;20045;-77